sensor_id;sensor_type;location;lat;lon;timestamp;pressure;altitude;pressure_sealevel;temperature;humidity
28626;BME280;18905;42.668;23.364;2022-09-12T20:44:45;94955.19;;;16.80;100.00
28626;BME280;18905;42.668;23.364;2022-09-12T21:31:41;94968.38;;;19.97;100.00
28626;BME280;18905;42.668;23.364;2022-09-12T21:34:06;94958.97;;;19.98;100.00
28626;BME280;18905;42.668;23.364;2022-09-12T21:39:38;94818.97;;;17.32;100.00
28626;BME280;18905;42.668;23.364;2022-09-12T21:42:04;94882.47;;;17.29;100.00
28626;BME280;18905;42.668;23.364;2022-09-12T21:44:29;94971.81;;;18.00;100.00
28626;BME280;18905;42.668;23.364;2022-09-12T21:46:55;94889.69;;;18.15;100.00
28626;BME280;18905;42.668;23.364;2022-09-12T21:49:21;94903.78;;;17.91;100.00
28626;BME280;18905;42.668;23.364;2022-09-12T21:51:46;94856.16;;;18.18;100.00
28626;BME280;18905;42.668;23.364;2022-09-12T21:54:12;94892.81;;;18.17;100.00
28626;BME280;18905;42.668;23.364;2022-09-12T21:56:39;94846.25;;;17.10;100.00
28626;BME280;18905;42.668;23.364;2022-09-12T21:59:27;94966.97;;;17.90;100.00
28626;BME280;18905;42.668;23.364;2022-09-12T22:01:53;94826.44;;;16.30;100.00
28626;BME280;18905;42.668;23.364;2022-09-12T22:04:23;94937.03;;;17.29;100.00
28626;BME280;18905;42.668;23.364;2022-09-12T22:06:50;94854.53;;;17.13;100.00
28626;BME280;18905;42.668;23.364;2022-09-12T22:09:16;94822.50;;;16.27;100.00
28626;BME280;18905;42.668;23.364;2022-09-12T22:11:44;94914.50;;;17.77;100.00
28626;BME280;18905;42.668;23.364;2022-09-12T22:14:10;94923.69;;;18.44;100.00
28626;BME280;18905;42.668;23.364;2022-09-12T22:16:35;94964.88;;;18.87;100.00
28626;BME280;18905;42.668;23.364;2022-09-12T22:19:26;94895.44;;;17.58;100.00
28626;BME280;18905;42.668;23.364;2022-09-12T22:21:55;94880.59;;;17.82;100.00
28626;BME280;18905;42.668;23.364;2022-09-12T22:24:43;94850.72;;;17.66;100.00
28626;BME280;18905;42.668;23.364;2022-09-12T22:27:09;94956.78;;;17.42;100.00
28626;BME280;18905;42.668;23.364;2022-09-12T22:32:18;94822.78;;;16.60;100.00
28626;BME280;18905;42.668;23.364;2022-09-12T22:34:44;94962.72;;;17.47;100.00
28626;BME280;18905;42.668;23.364;2022-09-12T22:37:10;94853.53;;;16.80;100.00
28626;BME280;18905;42.668;23.364;2022-09-12T22:39:37;94868.03;;;17.06;100.00
28626;BME280;18905;42.668;23.364;2022-09-12T22:42:03;94856.75;;;16.28;100.00
28626;BME280;18905;42.668;23.364;2022-09-12T22:44:34;94897.38;;;15.99;100.00
28626;BME280;18905;42.668;23.364;2022-09-12T22:47:00;94867.63;;;16.85;100.00
28626;BME280;18905;42.668;23.364;2022-09-12T22:49:26;94842.53;;;15.81;100.00
28626;BME280;18905;42.668;23.364;2022-09-12T22:51:52;94813.72;;;15.46;100.00
28626;BME280;18905;42.668;23.364;2022-09-12T22:54:21;94849.69;;;15.55;100.00
28626;BME280;18905;42.668;23.364;2022-09-12T22:56:50;94955.06;;;16.54;100.00
28626;BME280;18905;42.668;23.364;2022-09-12T22:59:16;94887.31;;;16.18;100.00
28626;BME280;18905;42.668;23.364;2022-09-12T23:01:42;94950.88;;;16.79;100.00
28626;BME280;18905;42.668;23.364;2022-09-12T23:04:09;94790.94;;;15.69;100.00
28626;BME280;18905;42.668;23.364;2022-09-12T23:06:35;94827.72;;;15.98;100.00
28626;BME280;18905;42.668;23.364;2022-09-12T23:09:07;94805.72;;;16.06;100.00
28626;BME280;18905;42.668;23.364;2022-09-12T23:11:34;94819.44;;;15.75;100.00
28626;BME280;18905;42.668;23.364;2022-09-12T23:14:31;94939.91;;;16.03;100.00
28626;BME280;18905;42.668;23.364;2022-09-12T23:17:40;94858.38;;;15.29;100.00
28626;BME280;18905;42.668;23.364;2022-09-12T23:22:45;94929.22;;;15.17;100.00
28626;BME280;18905;42.668;23.364;2022-09-12T23:25:14;94780.53;;;14.16;100.00
28626;BME280;18905;42.668;23.364;2022-09-12T23:27:41;94919.72;;;15.11;100.00
28626;BME280;18905;42.668;23.364;2022-09-12T23:30:11;94840.56;;;14.54;100.00
28626;BME280;18905;42.668;23.364;2022-09-12T23:32:50;94846.28;;;14.37;100.00
28626;BME280;18905;42.668;23.364;2022-09-12T23:35:28;94855.50;;;14.33;100.00
28626;BME280;18905;42.668;23.364;2022-09-12T23:37:54;94926.06;;;14.72;100.00
28626;BME280;18905;42.668;23.364;2022-09-12T23:40:21;94925.38;;;14.75;100.00
28626;BME280;18905;42.668;23.364;2022-09-12T23:42:46;94857.97;;;14.38;100.00
28626;BME280;18905;42.668;23.364;2022-09-12T23:45:12;94784.94;;;13.93;100.00
28626;BME280;18905;42.668;23.364;2022-09-12T23:47:38;94915.28;;;14.76;100.00
28626;BME280;18905;42.668;23.364;2022-09-12T23:50:05;94918.88;;;14.80;100.00
28626;BME280;18905;42.668;23.364;2022-09-12T23:52:31;94847.28;;;14.45;100.00
28626;BME280;18905;42.668;23.364;2022-09-12T23:54:57;94890.78;;;14.60;100.00
28626;BME280;18905;42.668;23.364;2022-09-12T23:57:25;94750.56;;;13.58;100.00
28626;BME280;18905;42.668;23.364;2022-09-12T23:59:51;94921.63;;;14.52;100.00
